Time;durP1;ratioP1;P1;durP2;ratioP2;P2;SDS_P1;SDS_P2;PMS_P1;PMS_P2;Temp;Humidity;BMP_temperature;BMP_pressure;BME280_temperature;BME280_humidity;BME280_pressure;Samples;Min_cycle;Max_cycle;Signal;HPM_P1;HPM_P2
2022/10/12 00:01:18;;;;;;;13.75;10.07;;;;;;;;;;5034138;28;20026;-64
2022/10/12 00:03:44;;;;;;;14.38;9.50;;;;;;;;;;5035339;28;20049;-64
2022/10/12 00:06:21;;;;;;;11.38;8.85;;;;;;;;;;5035555;28;20025;-64
2022/10/12 00:08:49;;;;;;;16.30;9.27;;;;;;;;;;5035553;28;20060;-63
2022/10/12 00:11:26;;;;;;;12.43;8.80;;;;;;;;;;5035116;28;20458;-64
2022/10/12 00:13:52;;;;;;;10.60;9.18;;;;;;;;;;5035406;28;20036;-63
2022/10/12 00:16:20;;;;;;;12.85;9.52;;;;;;;;;;5035342;28;20051;-64
2022/10/12 00:18:53;;;;;;;13.35;9.50;;;;;;;;;;5035385;28;20053;-64
2022/10/12 00:21:19;;;;;;;13.43;9.15;;;;;;;;;;5035288;28;20408;-63
2022/10/12 00:23:46;;;;;;;12.27;9.65;;;;;;;;;;5034972;28;20482;-63
2022/10/12 00:26:15;;;;;;;14.38;9.70;;;;;;;;;;5034350;28;20035;-63
2022/10/12 00:28:41;;;;;;;12.48;9.45;;;;;;;;;;5035148;28;20025;-64
2022/10/12 00:31:08;;;;;;;16.83;9.15;;;;;;;;;;5035088;28;20428;-63
2022/10/12 00:33:35;;;;;;;10.43;9.13;;;;;;;;;;5035081;28;20025;-64
2022/10/12 00:36:10;;;;;;;13.55;9.82;;;;;;;;;;5034752;28;20033;-63
2022/10/12 00:38:35;;;;;;;14.25;9.95;;;;;;;;;;5035024;28;20029;-63
2022/10/12 00:41:01;;;;;;;13.27;10.00;;;;;;;;;;5034895;28;20029;-63
2022/10/12 00:43:33;;;;;;;13.15;9.98;;;;;;;;;;5034896;28;20366;-63
2022/10/12 00:46:00;;;;;;;12.30;8.95;;;;;;;;;;5034429;28;20021;-63
2022/10/12 00:48:26;;;;;;;11.50;9.20;;;;;;;;;;5034518;28;20025;-64
2022/10/12 00:50:53;;;;;;;12.40;9.68;;;;;;;;;;5034787;28;20364;-66
2022/10/12 00:53:25;;;;;;;13.13;10.30;;;;;;;;;;5034417;28;20401;-64
2022/10/12 00:55:56;;;;;;;14.40;10.05;;;;;;;;;;5034429;28;20025;-66
2022/10/12 00:58:22;;;;;;;13.50;9.95;;;;;;;;;;5034267;28;20519;-66
2022/10/12 01:00:49;;;;;;;13.25;10.25;;;;;;;;;;5034600;28;20034;-63
2022/10/12 01:03:18;;;;;;;13.20;9.63;;;;;;;;;;5034524;28;20052;-64
2022/10/12 01:05:44;;;;;;;12.07;9.75;;;;;;;;;;5034490;28;20029;-64
2022/10/12 01:08:09;;;;;;;12.02;9.68;;;;;;;;;;5034185;28;20031;-63
2022/10/12 01:10:35;;;;;;;13.93;10.18;;;;;;;;;;5034660;28;20083;-64
2022/10/12 01:13:01;;;;;;;14.27;9.63;;;;;;;;;;5034071;28;20029;-72
2022/10/12 01:15:35;;;;;;;12.10;9.70;;;;;;;;;;5034340;28;20025;-63
2022/10/12 01:18:21;;;;;;;15.27;9.40;;;;;;;;;;5034287;28;20017;-64
2022/10/12 01:21:13;;;;;;;17.05;11.50;;;;;;;;;;5033608;28;20501;-63
2022/10/12 01:23:39;;;;;;;13.30;10.02;;;;;;;;;;5033853;28;20028;-69
2022/10/12 01:26:28;;;;;;;15.00;10.75;;;;;;;;;;5033730;28;20108;-66
2022/10/12 01:29:10;;;;;;;13.80;10.75;;;;;;;;;;5034082;28;20029;-64
2022/10/12 01:31:44;;;;;;;13.45;10.38;;;;;;;;;;5034025;28;20041;-63
2022/10/12 01:34:27;;;;;;;12.90;10.15;;;;;;;;;;5033576;28;20036;-63
2022/10/12 01:37:35;;;;;;;14.00;10.75;;;;;;;;;;5033889;28;20029;-69
2022/10/12 01:40:06;;;;;;;13.35;10.13;;;;;;;;;;5032374;28;20033;-63
2022/10/12 01:42:37;;;;;;;14.25;10.60;;;;;;;;;;5033436;28;20029;-65
2022/10/12 01:45:16;;;;;;;11.88;10.50;;;;;;;;;;5033752;28;20037;-63
2022/10/12 01:47:47;;;;;;;13.88;10.88;;;;;;;;;;5033661;28;20018;-64
2022/10/12 01:50:14;;;;;;;15.90;10.80;;;;;;;;;;5033488;28;20028;-67
2022/10/12 01:52:50;;;;;;;18.88;10.77;;;;;;;;;;5033275;28;20028;-64
2022/10/12 01:55:20;;;;;;;13.93;9.73;;;;;;;;;;5033268;28;20056;-63
2022/10/12 01:57:58;;;;;;;14.27;11.68;;;;;;;;;;5033491;28;20036;-67
2022/10/12 02:00:23;;;;;;;12.98;10.65;;;;;;;;;;5033510;28;20037;-65
2022/10/12 02:03:01;;;;;;;13.85;11.43;;;;;;;;;;5033680;28;20036;-65
2022/10/12 02:05:48;;;;;;;13.85;10.60;;;;;;;;;;5033094;28;20467;-66
2022/10/12 02:08:20;;;;;;;15.73;10.57;;;;;;;;;;5032991;28;20502;-63
2022/10/12 02:11:00;;;;;;;16.50;10.70;;;;;;;;;;5032895;28;20481;-68
2022/10/12 02:13:30;;;;;;;13.50;10.82;;;;;;;;;;5033123;28;20033;-63
2022/10/12 02:15:58;;;;;;;13.80;10.90;;;;;;;;;;5033143;28;20028;-63
2022/10/12 02:18:24;;;;;;;13.65;11.18;;;;;;;;;;5032769;28;20065;-63
2022/10/12 02:20:52;;;;;;;13.02;9.82;;;;;;;;;;5032782;28;20053;-63
2022/10/12 02:23:20;;;;;;;13.02;10.77;;;;;;;;;;5032711;28;20108;-64
2022/10/12 02:25:46;;;;;;;11.70;9.57;;;;;;;;;;5032691;28;20033;-65
2022/10/12 02:28:15;;;;;;;12.57;10.20;;;;;;;;;;5031505;28;20029;-63
2022/10/12 02:30:50;;;;;;;17.33;10.83;;;;;;;;;;5033264;28;20021;-63
2022/10/12 02:33:30;;;;;;;14.65;10.57;;;;;;;;;;5032649;28;20393;-64
2022/10/12 02:36:01;;;;;;;;;;;;;;;;;;5033345;28;20541;-64
2022/10/12 02:38:38;;;;;;;15.27;10.82;;;;;;;;;;5032682;28;19913;-63
2022/10/12 02:41:28;;;;;;;14.82;11.13;;;;;;;;;;5032777;28;20061;-63
2022/10/12 02:43:58;;;;;;;14.88;11.70;;;;;;;;;;5032817;28;20064;-65
2022/10/12 02:46:25;;;;;;;;;;;;;;;;;;5032960;28;20029;-64
2022/10/12 02:48:52;;;;;;;16.90;11.95;;;;;;;;;;5032288;28;19963;-63
2022/10/12 02:51:18;;;;;;;15.52;10.60;;;;;;;;;;5032628;28;20095;-63
2022/10/12 02:53:45;;;;;;;14.93;10.65;;;;;;;;;;5032294;28;20060;-63
2022/10/12 02:56:13;;;;;;;17.67;10.75;;;;;;;;;;5032592;28;20430;-63
2022/10/12 02:58:43;;;;;;;13.18;10.75;;;;;;;;;;5032585;28;20037;-63
2022/10/12 03:01:08;;;;;;;;;;;;;;;;;;5032780;28;20071;-63
2022/10/12 03:03:34;;;;;;;15.15;10.82;;;;;;;;;;5032280;28;19913;-66
2022/10/12 03:05:59;;;;;;;14.68;10.57;;;;;;;;;;5032278;28;20032;-66
2022/10/12 03:08:25;;;;;;;12.93;10.57;;;;;;;;;;5032255;28;20061;-66
2022/10/12 03:10:50;;;;;;;16.42;11.18;;;;;;;;;;5032179;28;20029;-66
2022/10/12 03:13:16;;;;;;;14.50;10.77;;;;;;;;;;5032423;28;20025;-64
2022/10/12 03:15:41;;;;;;;14.55;11.32;;;;;;;;;;5032424;28;20025;-64
2022/10/12 03:18:07;;;;;;;15.07;11.13;;;;;;;;;;5032124;28;20026;-69
2022/10/12 03:20:32;;;;;;;14.32;11.80;;;;;;;;;;5032138;28;20087;-66
2022/10/12 03:22:58;;;;;;;12.73;10.38;;;;;;;;;;5032106;28;20038;-64
2022/10/12 03:25:23;;;;;;;20.67;11.63;;;;;;;;;;5032055;28;20111;-67
2022/10/12 03:27:49;;;;;;;15.15;10.43;;;;;;;;;;5032064;28;20034;-69
2022/10/12 03:30:14;;;;;;;14.85;11.30;;;;;;;;;;5032002;28;20032;-63
2022/10/12 03:32:40;;;;;;;14.80;11.90;;;;;;;;;;5031987;28;20030;-64
2022/10/12 03:35:06;;;;;;;15.30;11.00;;;;;;;;;;5031921;28;20037;-64
2022/10/12 03:37:32;;;;;;;12.30;10.40;;;;;;;;;;5031945;28;20033;-67
2022/10/12 03:39:57;;;;;;;15.25;10.23;;;;;;;;;;5031923;28;20083;-66
2022/10/12 03:42:22;;;;;;;14.13;10.15;;;;;;;;;;5031912;28;20105;-68
2022/10/12 03:44:48;;;;;;;14.68;11.13;;;;;;;;;;5032189;28;20029;-63
2022/10/12 03:47:13;;;;;;;15.50;11.02;;;;;;;;;;5031956;28;20517;-64
2022/10/12 03:49:39;;;;;;;13.85;10.65;;;;;;;;;;5031900;28;20026;-65
2022/10/12 03:52:04;;;;;;;14.80;10.55;;;;;;;;;;5031792;28;20034;-63
2022/10/12 03:54:30;;;;;;;13.77;9.75;;;;;;;;;;5031529;28;20056;-65
2022/10/12 03:56:55;;;;;;;11.98;10.23;;;;;;;;;;5032084;28;20149;-69
2022/10/12 03:59:21;;;;;;;13.70;10.07;;;;;;;;;;5032335;28;20033;-67
2022/10/12 04:01:46;;;;;;;15.27;10.88;;;;;;;;;;5034151;28;20025;-65
2022/10/12 04:04:12;;;;;;;16.75;11.10;;;;;;;;;;5034342;28;20036;-66
2022/10/12 04:06:38;;;;;;;13.82;10.30;;;;;;;;;;5035621;28;20501;-68
2022/10/12 04:09:03;;;;;;;14.20;10.27;;;;;;;;;;5035507;28;20049;-64
2022/10/12 04:11:28;;;;;;;13.45;10.15;;;;;;;;;;5035175;28;20025;-70
2022/10/12 04:13:54;;;;;;;14.57;10.70;;;;;;;;;;5034174;28;20029;-64
2022/10/12 04:16:19;;;;;;;12.95;10.52;;;;;;;;;;5035388;28;20032;-63
2022/10/12 04:18:45;;;;;;;14.60;10.10;;;;;;;;;;5035223;28;20382;-69
2022/10/12 04:21:13;;;;;;;11.52;9.65;;;;;;;;;;5035051;28;20025;-68
2022/10/12 04:23:39;;;;;;;14.32;10.02;;;;;;;;;;5035053;28;20036;-71
2022/10/12 04:26:05;;;;;;;16.15;10.52;;;;;;;;;;5034962;28;20033;-70
2022/10/12 04:28:30;;;;;;;15.38;9.98;;;;;;;;;;5035193;28;20030;-72
2022/10/12 04:30:56;;;;;;;12.60;9.98;;;;;;;;;;5035111;28;20017;-64
2022/10/12 04:33:21;;;;;;;14.73;10.65;;;;;;;;;;5034773;28;20358;-65
2022/10/12 04:35:46;;;;;;;12.15;9.98;;;;;;;;;;5035055;28;20049;-67
2022/10/12 04:38:12;;;;;;;15.43;10.55;;;;;;;;;;5034985;28;20425;-70
2022/10/12 04:40:38;;;;;;;13.50;10.20;;;;;;;;;;5034985;28;20581;-70
2022/10/12 04:43:03;;;;;;;14.70;10.40;;;;;;;;;;5034686;28;20075;-69
2022/10/12 04:45:29;;;;;;;12.20;10.27;;;;;;;;;;5034556;28;20465;-73
2022/10/12 04:47:54;;;;;;;15.25;9.55;;;;;;;;;;5034787;28;20040;-66
2022/10/12 04:50:20;;;;;;;14.00;9.55;;;;;;;;;;5034509;28;20041;-64
2022/10/12 04:52:46;;;;;;;13.65;10.20;;;;;;;;;;5034270;28;20487;-64
2022/10/12 04:55:11;;;;;;;13.48;10.48;;;;;;;;;;5034281;28;20029;-64
2022/10/12 04:57:37;;;;;;;11.48;9.95;;;;;;;;;;5033040;28;20024;-65
2022/10/12 05:00:06;;;;;;;13.07;10.38;;;;;;;;;;5034561;28;20065;-65
2022/10/12 05:02:31;;;;;;;15.18;10.27;;;;;;;;;;5034542;28;20033;-63
2022/10/12 05:04:57;;;;;;;16.85;9.80;;;;;;;;;;5032963;28;20047;-73
2022/10/12 05:07:23;;;;;;;12.65;10.52;;;;;;;;;;5034432;28;20037;-65
2022/10/12 05:09:48;;;;;;;14.27;10.73;;;;;;;;;;5034094;28;20040;-68
2022/10/12 05:12:14;;;;;;;14.65;10.27;;;;;;;;;;5033970;28;20112;-64
2022/10/12 05:14:39;;;;;;;15.52;10.52;;;;;;;;;;5034148;28;20036;-65
2022/10/12 05:17:05;;;;;;;13.55;10.00;;;;;;;;;;5033854;28;20424;-65
2022/10/12 05:19:30;;;;;;;12.82;10.68;;;;;;;;;;5033883;28;20041;-64
2022/10/12 05:21:56;;;;;;;14.45;10.40;;;;;;;;;;5034084;28;20033;-71
2022/10/12 05:24:22;;;;;;;16.33;10.65;;;;;;;;;;5034052;28;20099;-68
2022/10/12 05:26:47;;;;;;;16.45;10.13;;;;;;;;;;5033822;28;20053;-70
2022/10/12 05:29:13;;;;;;;14.30;10.35;;;;;;;;;;5033908;28;20021;-66
2022/10/12 05:31:38;;;;;;;14.23;10.07;;;;;;;;;;5033881;28;20025;-64
2022/10/12 05:34:04;;;;;;;13.77;9.98;;;;;;;;;;5033472;28;20108;-72
2022/10/12 05:36:29;;;;;;;16.58;10.80;;;;;;;;;;5033576;28;20025;-64
2022/10/12 05:38:54;;;;;;;16.08;11.15;;;;;;;;;;5033367;28;20026;-68
2022/10/12 05:41:20;;;;;;;12.93;9.95;;;;;;;;;;5033756;28;20022;-67
2022/10/12 05:43:45;;;;;;;14.50;10.13;;;;;;;;;;5033943;28;20037;-64
2022/10/12 05:46:11;;;;;;;15.40;10.57;;;;;;;;;;5033374;28;20017;-75
2022/10/12 05:48:36;;;;;;;14.93;10.35;;;;;;;;;;5033390;28;20026;-72
2022/10/12 05:51:02;;;;;;;11.32;9.40;;;;;;;;;;5033547;28;20040;-68
2022/10/12 05:53:27;;;;;;;14.50;10.40;;;;;;;;;;5033068;28;20405;-73
2022/10/12 05:55:58;;;;;;;17.60;10.13;;;;;;;;;;5033257;28;20036;-70
2022/10/12 05:58:25;;;;;;;13.15;9.80;;;;;;;;;;5033103;28;20028;-66
2022/10/12 06:00:51;;;;;;;14.20;10.10;;;;;;;;;;5033405;28;20126;-66
2022/10/12 06:03:17;;;;;;;14.68;9.50;;;;;;;;;;5033528;28;20026;-65
2022/10/12 06:05:43;;;;;;;10.68;9.35;;;;;;;;;;5033348;28;20032;-70
2022/10/12 06:08:09;;;;;;;15.77;10.02;;;;;;;;;;5033314;28;20410;-66
2022/10/12 06:10:36;;;;;;;14.48;9.40;;;;;;;;;;5032986;28;20044;-63
2022/10/12 06:13:01;;;;;;;14.82;9.80;;;;;;;;;;5033110;28;20037;-63
2022/10/12 06:15:27;;;;;;;12.43;9.63;;;;;;;;;;5032851;28;20033;-64
2022/10/12 06:17:52;;;;;;;17.25;9.25;;;;;;;;;;5033027;28;20113;-67
2022/10/12 06:20:18;;;;;;;13.45;9.30;;;;;;;;;;5032773;28;20029;-66
2022/10/12 06:22:44;;;;;;;13.43;8.80;;;;;;;;;;5032735;28;20037;-67
2022/10/12 06:25:09;;;;;;;11.60;9.25;;;;;;;;;;5032578;28;20030;-68
2022/10/12 06:27:34;;;;;;;10.48;9.30;;;;;;;;;;5032999;28;20498;-74
2022/10/12 06:30:00;;;;;;;15.30;9.13;;;;;;;;;;5032930;28;20488;-66
2022/10/12 06:32:26;;;;;;;15.18;9.35;;;;;;;;;;5032886;28;20033;-65
2022/10/12 06:34:51;;;;;;;14.88;9.38;;;;;;;;;;5032742;28;20033;-68
2022/10/12 06:37:16;;;;;;;12.00;8.60;;;;;;;;;;5032504;28;20060;-64
2022/10/12 06:39:42;;;;;;;13.93;8.45;;;;;;;;;;5032507;28;20030;-70
2022/10/12 06:42:08;;;;;;;12.32;8.60;;;;;;;;;;5032518;28;20026;-65
2022/10/12 06:44:34;;;;;;;13.13;9.20;;;;;;;;;;5032696;28;20029;-75
2022/10/12 06:46:59;;;;;;;14.80;8.73;;;;;;;;;;5032351;28;20051;-68
2022/10/12 06:49:25;;;;;;;12.38;8.40;;;;;;;;;;5033235;28;20103;-65
2022/10/12 06:51:50;;;;;;;10.52;8.50;;;;;;;;;;5046931;28;20070;-65
2022/10/12 06:54:16;;;;;;;14.65;9.10;;;;;;;;;;5045335;28;20415;-64
2022/10/12 06:56:43;;;;;;;14.73;9.02;;;;;;;;;;5046980;28;20037;-74
2022/10/12 06:59:11;;;;;;;13.60;9.10;;;;;;;;;;5050099;28;20029;-73
2022/10/12 07:01:37;;;;;;;13.65;8.52;;;;;;;;;;5047318;28;20028;-65
2022/10/12 07:04:02;;;;;;;12.35;8.65;;;;;;;;;;5046282;28;20020;-73
2022/10/12 07:06:28;;;;;;;12.00;7.90;;;;;;;;;;5048317;28;20104;-68
2022/10/12 07:08:53;;;;;;;11.95;9.18;;;;;;;;;;5048142;28;20025;-69
2022/10/12 07:11:19;;;;;;;16.05;8.38;;;;;;;;;;5047275;28;20025;-68
2022/10/12 07:13:45;;;;;;;14.27;8.23;;;;;;;;;;5050395;28;20048;-69
2022/10/12 07:16:10;;;;;;;11.00;8.05;;;;;;;;;;5034440;28;20032;-63
2022/10/12 07:18:36;;;;;;;13.10;7.97;;;;;;;;;;5043057;28;20037;-65
2022/10/12 07:21:01;;;;;;;11.63;8.30;;;;;;;;;;5049258;28;20021;-61
2022/10/12 07:23:28;;;;;;;12.50;8.43;;;;;;;;;;5049452;28;20025;-62
2022/10/12 07:25:53;;;;;;;12.80;8.15;;;;;;;;;;5049075;28;20044;-61
2022/10/12 07:28:20;;;;;;;11.15;8.15;;;;;;;;;;5049017;28;20025;-65
2022/10/12 07:30:46;;;;;;;13.90;8.25;;;;;;;;;;5050408;28;20033;-62
2022/10/12 07:33:11;;;;;;;14.60;8.45;;;;;;;;;;5050147;28;20140;-60
2022/10/12 07:35:37;;;;;;;12.57;7.90;;;;;;;;;;5047380;28;20122;-61
2022/10/12 07:38:03;;;;;;;13.07;7.82;;;;;;;;;;5050386;28;20025;-68
2022/10/12 07:40:29;;;;;;;11.00;7.75;;;;;;;;;;5053594;28;20032;-63
2022/10/12 07:42:55;;;;;;;9.68;7.55;;;;;;;;;;5053988;28;20029;-61
2022/10/12 07:45:20;;;;;;;11.68;7.72;;;;;;;;;;5054077;28;20094;-65
2022/10/12 07:47:46;;;;;;;11.27;7.75;;;;;;;;;;5051491;28;20055;-60
2022/10/12 07:50:12;;;;;;;14.60;7.47;;;;;;;;;;5052429;28;20037;-60
2022/10/12 07:52:37;;;;;;;9.45;7.65;;;;;;;;;;5054045;28;20040;-61
2022/10/12 07:55:03;;;;;;;12.68;7.28;;;;;;;;;;5052025;28;20049;-62
2022/10/12 07:57:28;;;;;;;18.20;7.57;;;;;;;;;;5053956;28;20029;-61
2022/10/12 07:59:54;;;;;;;10.75;7.95;;;;;;;;;;5053628;28;20036;-61
2022/10/12 08:02:20;;;;;;;14.00;7.80;;;;;;;;;;5052345;28;20013;-64
2022/10/12 08:04:46;;;;;;;10.48;7.80;;;;;;;;;;5053715;28;20068;-63
2022/10/12 08:07:11;;;;;;;12.95;7.90;;;;;;;;;;5052248;28;20049;-61
2022/10/12 08:09:37;;;;;;;12.95;8.40;;;;;;;;;;5053562;28;20065;-65
2022/10/12 08:12:03;;;;;;;11.85;7.63;;;;;;;;;;5053904;28;20103;-68
2022/10/12 08:14:28;;;;;;;10.18;7.30;;;;;;;;;;5053794;28;20442;-62
2022/10/12 08:16:54;;;;;;;12.45;8.20;;;;;;;;;;5053445;28;20036;-61
2022/10/12 08:19:19;;;;;;;14.90;8.13;;;;;;;;;;5053572;28;20025;-64
2022/10/12 08:21:45;;;;;;;14.55;8.65;;;;;;;;;;5051022;28;20074;-63
2022/10/12 08:24:11;;;;;;;10.77;7.45;;;;;;;;;;5053045;28;20345;-63
2022/10/12 08:26:37;;;;;;;9.75;7.35;;;;;;;;;;5039316;28;20465;-61
2022/10/12 08:29:04;;;;;;;13.52;6.85;;;;;;;;;;5033542;28;20018;-65
2022/10/12 08:31:30;;;;;;;11.93;7.18;;;;;;;;;;5033052;28;20064;-66
2022/10/12 08:33:56;;;;;;;12.45;7.47;;;;;;;;;;5032974;28;20033;-66
2022/10/12 08:36:22;;;;;;;8.77;6.53;;;;;;;;;;5032952;28;20139;-68
2022/10/12 08:38:54;;;;;;;12.88;6.97;;;;;;;;;;5032890;28;20041;-61
2022/10/12 08:41:41;;;;;;;9.38;6.95;;;;;;;;;;5033079;28;20112;-63
2022/10/12 08:44:39;;;;;;;11.38;6.60;;;;;;;;;;5033231;28;20037;-62
2022/10/12 08:47:22;;;;;;;8.10;6.13;;;;;;;;;;5032843;28;20028;-63
2022/10/12 08:49:49;;;;;;;8.63;6.82;;;;;;;;;;5032762;28;20014;-62
2022/10/12 08:52:39;;;;;;;8.23;6.25;;;;;;;;;;5032605;28;20466;-63
2022/10/12 08:55:25;;;;;;;;;;;;;;;;;;5032840;28;20478;-63
2022/10/12 08:57:50;;;;;;;8.30;6.22;;;;;;;;;;5035274;28;19913;-61
2022/10/12 09:00:16;;;;;;;9.57;6.35;;;;;;;;;;5032893;28;20050;-61
2022/10/12 09:03:11;;;;;;;8.88;6.22;;;;;;;;;;5032598;28;20068;-62
2022/10/12 09:05:45;;;;;;;9.55;6.13;;;;;;;;;;5032786;28;20030;-65
2022/10/12 09:08:45;;;;;;;8.18;5.63;;;;;;;;;;5032480;28;20024;-65
2022/10/12 09:11:33;;;;;;;8.52;6.22;;;;;;;;;;5044355;28;20116;-65
2022/10/12 09:14:07;;;;;;;7.22;5.60;;;;;;;;;;5052087;28;20081;-69
2022/10/12 09:16:37;;;;;;;7.80;5.85;;;;;;;;;;5052023;28;20068;-69
2022/10/12 09:19:27;;;;;;;10.07;5.78;;;;;;;;;;5052510;28;20024;-65
2022/10/12 09:21:53;;;;;;;8.10;5.55;;;;;;;;;;5047775;28;20028;-61
2022/10/12 09:24:25;;;;;;;8.57;5.55;;;;;;;;;;5052069;28;20381;-62
2022/10/12 09:26:54;;;;;;;7.03;5.32;;;;;;;;;;5051926;28;20104;-66
2022/10/12 09:29:30;;;;;;;8.67;5.60;;;;;;;;;;5052052;28;20112;-62
2022/10/12 09:32:14;;;;;;;7.50;5.28;;;;;;;;;;5052037;28;20266;-70
2022/10/12 09:34:40;;;;;;;7.32;5.63;;;;;;;;;;5051982;28;20033;-63
2022/10/12 09:37:09;;;;;;;10.88;5.40;;;;;;;;;;5051928;28;20047;-62
2022/10/12 09:39:39;;;;;;;7.05;5.72;;;;;;;;;;5052058;28;20082;-67
2022/10/12 09:42:05;;;;;;;9.43;5.47;;;;;;;;;;5050281;28;20028;-68
2022/10/12 09:44:39;;;;;;;7.20;5.65;;;;;;;;;;5051976;28;20033;-66
2022/10/12 09:47:27;;;;;;;7.68;5.47;;;;;;;;;;5050381;28;20197;-64
2022/10/12 09:50:04;;;;;;;8.75;5.75;;;;;;;;;;5051664;28;20028;-64
2022/10/12 09:52:41;;;;;;;7.93;5.40;;;;;;;;;;5051587;28;20663;-65
2022/10/12 09:55:25;;;;;;;9.10;5.43;;;;;;;;;;5043476;28;20148;-68
2022/10/12 09:57:53;;;;;;;10.95;5.70;;;;;;;;;;5034895;28;20520;-66
2022/10/12 10:00:24;;;;;;;6.95;5.43;;;;;;;;;;5051157;28;20028;-69
2022/10/12 10:02:51;;;;;;;11.82;5.90;;;;;;;;;;5051457;28;20117;-65
2022/10/12 10:05:30;;;;;;;9.93;5.40;;;;;;;;;;5051622;28;20040;-65
2022/10/12 10:08:13;;;;;;;8.73;5.32;;;;;;;;;;5051628;28;20036;-69
2022/10/12 10:10:54;;;;;;;8.07;5.45;;;;;;;;;;5051512;28;20025;-69
2022/10/12 10:13:21;;;;;;;12.13;5.60;;;;;;;;;;5051228;28;20033;-67
2022/10/12 10:15:49;;;;;;;6.82;5.18;;;;;;;;;;5051176;28;20068;-66
2022/10/12 10:18:28;;;;;;;7.45;5.50;;;;;;;;;;5051505;28;20043;-68
2022/10/12 10:20:57;;;;;;;8.10;5.47;;;;;;;;;;5051460;28;20380;-64
2022/10/12 10:23:32;;;;;;;8.45;5.05;;;;;;;;;;5050968;28;20035;-66
2022/10/12 10:26:09;;;;;;;8.15;5.22;;;;;;;;;;5051370;28;20037;-64
2022/10/12 10:28:37;;;;;;;7.43;5.47;;;;;;;;;;5051049;28;20068;-65
2022/10/12 10:31:06;;;;;;;8.82;5.43;;;;;;;;;;5051108;28;20029;-63
2022/10/12 10:33:34;;;;;;;6.38;5.32;;;;;;;;;;5048243;28;20132;-64
2022/10/12 10:36:04;;;;;;;8.25;5.45;;;;;;;;;;5050942;28;20036;-65
2022/10/12 10:38:32;;;;;;;7.82;5.00;;;;;;;;;;5038755;28;20017;-67
2022/10/12 10:41:00;;;;;;;8.45;5.20;;;;;;;;;;5031413;28;20040;-64
2022/10/12 10:43:28;;;;;;;6.43;5.40;;;;;;;;;;5031281;28;20040;-62
2022/10/12 10:46:00;;;;;;;6.15;5.35;;;;;;;;;;5031285;28;20025;-68
2022/10/12 10:48:36;;;;;;;10.30;5.43;;;;;;;;;;5030896;28;20425;-63
2022/10/12 10:51:04;;;;;;;11.30;5.57;;;;;;;;;;5029696;28;20033;-64
2022/10/12 10:53:51;;;;;;;9.13;5.20;;;;;;;;;;5037561;28;20049;-66
2022/10/12 10:56:24;;;;;;;6.88;5.25;;;;;;;;;;5030634;28;20404;-66
2022/10/12 10:58:55;;;;;;;7.57;5.22;;;;;;;;;;5030721;28;20039;-64
2022/10/12 11:01:47;;;;;;;5.72;4.80;;;;;;;;;;5030860;28;20068;-63
2022/10/12 11:04:18;;;;;;;5.90;5.03;;;;;;;;;;5030917;28;20036;-65
2022/10/12 11:06:53;;;;;;;7.97;5.50;;;;;;;;;;5048324;28;20029;-68
2022/10/12 11:09:24;;;;;;;6.93;5.18;;;;;;;;;;5048346;28;20384;-65
2022/10/12 11:12:03;;;;;;;8.25;5.50;;;;;;;;;;5053554;28;20053;-67
2022/10/12 11:14:50;;;;;;;7.65;5.50;;;;;;;;;;5051362;28;20080;-66
2022/10/12 11:17:28;;;;;;;7.07;5.30;;;;;;;;;;5052919;28;20029;-66
2022/10/12 11:19:53;;;;;;;10.00;5.85;;;;;;;;;;5053523;28;20029;-67
2022/10/12 11:22:26;;;;;;;8.50;6.07;;;;;;;;;;5051942;28;20094;-67
2022/10/12 11:25:06;;;;;;;13.50;5.47;;;;;;;;;;5053954;28;20017;-66
2022/10/12 11:27:38;;;;;;;9.48;5.10;;;;;;;;;;5051997;28;20032;-68
2022/10/12 11:30:13;;;;;;;8.68;5.43;;;;;;;;;;5034299;28;20033;-67
2022/10/12 11:32:53;;;;;;;11.85;5.00;;;;;;;;;;5034794;28;20367;-63
2022/10/12 11:35:29;;;;;;;8.38;5.25;;;;;;;;;;5034183;28;20029;-64
2022/10/12 11:38:00;;;;;;;7.55;5.18;;;;;;;;;;5037610;28;20120;-66
2022/10/12 11:40:39;;;;;;;10.55;5.07;;;;;;;;;;5049908;28;20044;-69
2022/10/12 11:43:07;;;;;;;11.80;6.25;;;;;;;;;;5040898;28;20048;-63
2022/10/12 11:45:42;;;;;;;9.43;5.28;;;;;;;;;;5035637;28;20427;-64
2022/10/12 11:48:14;;;;;;;13.77;5.93;;;;;;;;;;5050686;28;20503;-64
2022/10/12 11:50:43;;;;;;;6.50;5.00;;;;;;;;;;5054149;28;20021;-65
2022/10/12 11:53:40;;;;;;;10.10;4.95;;;;;;;;;;5054164;28;20056;-63
2022/10/12 11:56:06;;;;;;;10.55;5.20;;;;;;;;;;5053449;28;20039;-67
2022/10/12 11:58:36;;;;;;;8.65;5.18;;;;;;;;;;5053756;28;20024;-65
2022/10/12 12:01:19;;;;;;;10.00;4.90;;;;;;;;;;5053859;28;20029;-69
2022/10/12 12:03:45;;;;;;;9.35;4.65;;;;;;;;;;5049302;28;20037;-68
2022/10/12 12:06:29;;;;;;;5.95;4.70;;;;;;;;;;5051913;28;20029;-63
2022/10/12 12:08:54;;;;;;;7.70;5.30;;;;;;;;;;5036534;28;20033;-67
2022/10/12 12:11:26;;;;;;;8.70;5.13;;;;;;;;;;5037859;28;20029;-70
2022/10/12 12:14:20;;;;;;;7.10;4.47;;;;;;;;;;5052628;28;20107;-64
2022/10/12 12:16:47;;;;;;;8.38;4.75;;;;;;;;;;5053530;28;20074;-64
2022/10/12 12:19:35;;;;;;;9.50;4.65;;;;;;;;;;5053528;28;20021;-66
2022/10/12 12:22:14;;;;;;;9.60;4.80;;;;;;;;;;5052980;28;20031;-70
2022/10/12 12:24:51;;;;;;;7.90;4.72;;;;;;;;;;5053733;28;20039;-64
2022/10/12 12:27:28;;;;;;;11.27;5.10;;;;;;;;;;5053436;28;20090;-68
2022/10/12 12:29:55;;;;;;;6.85;4.93;;;;;;;;;;5051729;28;20962;-67
2022/10/12 12:32:21;;;;;;;9.43;4.97;;;;;;;;;;5052175;28;20028;-63
2022/10/12 12:34:54;;;;;;;6.43;4.80;;;;;;;;;;5053056;28;20037;-68
2022/10/12 12:37:21;;;;;;;8.20;4.90;;;;;;;;;;5050503;28;20036;-69
2022/10/12 12:39:55;;;;;;;6.45;4.57;;;;;;;;;;5052042;28;20380;-67
2022/10/12 12:42:26;;;;;;;6.28;4.70;;;;;;;;;;5052988;28;20033;-64
2022/10/12 12:44:51;;;;;;;9.75;4.90;;;;;;;;;;5053212;28;20111;-67
2022/10/12 12:47:37;;;;;;;6.88;4.50;;;;;;;;;;5053088;28;20753;-68
2022/10/12 12:50:28;;;;;;;11.15;4.90;;;;;;;;;;5052979;28;20485;-71
2022/10/12 12:53:05;;;;;;;7.40;4.55;;;;;;;;;;5046007;28;20071;-65
2022/10/12 12:55:39;;;;;;;8.55;4.70;;;;;;;;;;5053006;28;20052;-64
2022/10/12 12:58:08;;;;;;;7.18;4.95;;;;;;;;;;5051416;28;20060;-65
2022/10/12 13:01:05;;;;;;;7.63;4.85;;;;;;;;;;5049471;28;20377;-71
2022/10/12 13:03:42;;;;;;;7.00;5.07;;;;;;;;;;5052409;28;20385;-71
2022/10/12 13:06:42;;;;;;;5.72;4.40;;;;;;;;;;5052641;28;20025;-70
2022/10/12 13:09:26;;;;;;;11.85;4.93;;;;;;;;;;5052685;28;20052;-65
2022/10/12 13:12:16;;;;;;;6.07;5.05;;;;;;;;;;5050788;28;20033;-68
2022/10/12 13:14:50;;;;;;;6.93;4.70;;;;;;;;;;5049599;28;20032;-64
2022/10/12 13:17:37;;;;;;;6.68;5.10;;;;;;;;;;5046961;28;20428;-68
2022/10/12 13:20:25;;;;;;;6.00;4.63;;;;;;;;;;5048783;28;20031;-67
2022/10/12 13:22:56;;;;;;;8.18;4.88;;;;;;;;;;5032287;28;20211;-65
2022/10/12 13:25:48;;;;;;;6.80;4.60;;;;;;;;;;5032378;28;20555;-68
2022/10/12 13:28:36;;;;;;;8.13;4.35;;;;;;;;;;5031153;28;20029;-65
2022/10/12 13:31:07;;;;;;;8.65;4.93;;;;;;;;;;5032167;28;20504;-64
2022/10/12 13:33:38;;;;;;;7.93;5.30;;;;;;;;;;5048742;28;20250;-64
2022/10/12 13:36:12;;;;;;;10.27;5.10;;;;;;;;;;5051884;28;20056;-67
2022/10/12 13:38:37;;;;;;;8.82;5.18;;;;;;;;;;5052317;28;20033;-65
2022/10/12 13:41:09;;;;;;;8.68;5.40;;;;;;;;;;5050027;28;20579;-65
2022/10/12 13:43:47;;;;;;;9.77;5.00;;;;;;;;;;5031825;28;20037;-66
2022/10/12 13:46:51;;;;;;;9.40;4.90;;;;;;;;;;5033503;28;20044;-65
2022/10/12 13:49:20;;;;;;;12.23;5.00;;;;;;;;;;5051160;28;20033;-65
2022/10/12 13:51:52;;;;;;;7.05;4.93;;;;;;;;;;5052163;28;20032;-66
2022/10/12 13:54:25;;;;;;;8.85;5.32;;;;;;;;;;5048583;28;20052;-69
2022/10/12 13:57:03;;;;;;;5.40;4.90;;;;;;;;;;5049452;28;20028;-65
2022/10/12 13:59:35;;;;;;;11.82;6.10;;;;;;;;;;5051900;28;20090;-67
2022/10/12 14:02:01;;;;;;;8.43;5.40;;;;;;;;;;5050511;28;20029;-67
2022/10/12 14:04:32;;;;;;;5.68;5.05;;;;;;;;;;5051367;28;20396;-68
2022/10/12 14:07:18;;;;;;;7.45;4.97;;;;;;;;;;5051366;28;20028;-68
2022/10/12 14:09:53;;;;;;;7.82;5.03;;;;;;;;;;5047392;28;20037;-68
2022/10/12 14:12:19;;;;;;;6.45;5.13;;;;;;;;;;5050329;28;20075;-65
2022/10/12 14:14:45;;;;;;;6.30;4.85;;;;;;;;;;5032541;28;20037;-65
2022/10/12 14:17:18;;;;;;;9.90;5.00;;;;;;;;;;5031637;28;20432;-69
2022/10/12 14:19:50;;;;;;;8.52;5.47;;;;;;;;;;5031696;28;20045;-65
2022/10/12 14:22:26;;;;;;;5.85;5.00;;;;;;;;;;5044275;28;20064;-65
2022/10/12 14:25:06;;;;;;;8.48;5.32;;;;;;;;;;5049657;28;20102;-69
2022/10/12 14:27:32;;;;;;;8.05;5.00;;;;;;;;;;5051276;28;20025;-66
2022/10/12 14:30:06;;;;;;;9.65;5.25;;;;;;;;;;5050964;28;20079;-66
2022/10/12 14:32:39;;;;;;;8.65;5.28;;;;;;;;;;5049629;28;20071;-66
2022/10/12 14:35:17;;;;;;;10.05;5.72;;;;;;;;;;5049598;28;20116;-66
2022/10/12 14:37:43;;;;;;;8.60;5.50;;;;;;;;;;5050835;28;20067;-69
2022/10/12 14:40:20;;;;;;;10.55;5.18;;;;;;;;;;5050975;28;20024;-66
2022/10/12 14:43:12;;;;;;;10.32;5.53;;;;;;;;;;5050659;28;20068;-68
2022/10/12 14:45:38;;;;;;;10.32;5.80;;;;;;;;;;5047967;28;20043;-65
2022/10/12 14:48:08;;;;;;;9.15;5.63;;;;;;;;;;5050860;28;20108;-67
2022/10/12 14:50:33;;;;;;;7.93;5.82;;;;;;;;;;5050388;28;20033;-67
2022/10/12 14:53:02;;;;;;;8.73;5.40;;;;;;;;;;5050639;28;20056;-66